Aviation Digital Data Service (ADDS)

Output produced by METARs form (1036 UTC 19 January 2019)
found at http://www.aviationweather.gov/metar/data/
 
VVDN 191030Z 32004KT 7000 FEW015 BKN060 24/20 Q1015 NOSIG
TAF VVDN 190500Z 1906/2006 36007KT 8000 FEW015 SCT050 
     BECMG 1915/1916 4000 BR 
     BECMG 1921/1922 2500 BR 
     BECMG 2000/2001 6000 NSW
       
VVNB 191030Z 32002KT 2200 HZ BKN025 20/14 Q1016 NOSIG
TAF VVNB 190500Z 1906/2006 06005KT 4000 HZ FEW023 BKN040 
     BECMG 1913/1915 2800 BR 
     TEMPO 1920/2001 1200 -DZ BR SCT008 BKN030 
     BECMG 2003/2004 4500 BR
       
VVTS 191030Z 19008KT 9999 FEW017 SCT050 29/22 Q1009 NOSIG
TAF VVTS 190500Z 1906/2012 06008KT 9999 SCT017